createdAt,value
2023-04-16T00:01:54.928Z,9.23
2023-04-16T00:16:54.771Z,9.21
2023-04-16T00:31:54.567Z,9.09
2023-04-16T00:46:54.394Z,9.05
2023-04-16T01:01:54.325Z,9.12
2023-04-16T01:16:54.090Z,9.15
2023-04-16T01:31:53.997Z,9.16
2023-04-16T01:46:53.899Z,9.20
2023-04-16T02:01:53.729Z,9.20
2023-04-16T02:16:54.073Z,9.23
2023-04-16T02:31:53.309Z,9.21
2023-04-16T02:46:53.138Z,9.20
2023-04-16T03:01:53.614Z,9.21
2023-04-16T03:16:52.821Z,9.13
2023-04-16T03:31:52.699Z,9.01
2023-04-16T03:46:52.614Z,8.93
2023-04-16T04:01:52.426Z,8.76
2023-04-16T04:16:52.181Z,8.75
2023-04-16T04:31:52.126Z,8.76
2023-04-16T04:46:51.942Z,8.76
2023-04-16T05:01:51.806Z,8.84
2023-04-16T05:16:51.619Z,8.78
2023-04-16T05:31:51.455Z,8.73
2023-04-16T05:46:51.259Z,8.78
2023-04-16T06:01:51.116Z,8.84
2023-04-16T06:16:50.978Z,8.87
2023-04-16T06:31:50.842Z,8.94
2023-04-16T06:46:50.679Z,9.10
2023-04-16T07:01:50.611Z,9.24
2023-04-16T07:16:50.367Z,9.30
2023-04-16T07:31:50.255Z,9.35
2023-04-16T07:46:50.056Z,9.48
2023-04-16T08:01:49.918Z,9.40
2023-04-16T08:16:49.721Z,9.42
2023-04-16T08:31:49.668Z,9.43
2023-04-16T08:46:50.548Z,9.42
2023-04-16T09:01:49.289Z,9.46
2023-04-16T09:16:49.144Z,9.45
2023-04-16T09:31:48.975Z,9.82
2023-04-16T09:46:48.852Z,10.00
2023-04-16T10:01:48.766Z,9.86
2023-04-16T10:16:48.562Z,9.99
2023-04-16T10:31:48.280Z,10.06
2023-04-16T10:46:48.197Z,10.76
2023-04-16T11:01:48.041Z,10.47
2023-04-16T11:16:47.858Z,10.84
2023-04-16T11:31:47.714Z,11.01
2023-04-16T11:46:47.525Z,11.17
2023-04-16T12:01:47.355Z,11.28
2023-04-16T12:16:48.314Z,10.77
2023-04-16T12:31:46.994Z,10.59
2023-04-16T12:46:50.003Z,10.86
2023-04-16T13:01:46.841Z,10.55
2023-04-16T13:16:46.563Z,10.52
2023-04-16T13:31:46.461Z,10.28
2023-04-16T13:46:46.275Z,10.30
2023-04-16T14:01:46.061Z,10.62
2023-04-16T14:16:45.963Z,10.80
2023-04-16T14:31:45.949Z,10.92
2023-04-16T14:46:45.590Z,10.81
2023-04-16T15:01:50.225Z,10.33
2023-04-16T15:16:45.322Z,10.17
2023-04-16T15:31:45.107Z,10.17
2023-04-16T15:46:45.092Z,10.25
2023-04-16T16:01:45.055Z,10.10
2023-04-16T16:16:44.769Z,10.01
2023-04-16T16:31:44.676Z,9.96
2023-04-16T16:46:44.363Z,9.81
2023-04-16T17:01:44.224Z,9.58
2023-04-16T17:16:44.196Z,9.46
2023-04-16T17:31:43.882Z,9.38
2023-04-16T17:46:43.704Z,9.16
2023-04-16T18:01:43.596Z,8.99
2023-04-16T18:16:43.429Z,8.79
2023-04-16T18:31:43.524Z,8.68
2023-04-16T18:46:43.115Z,8.73
2023-04-16T19:01:42.908Z,8.63
2023-04-16T19:16:42.859Z,8.57
2023-04-16T19:31:43.990Z,8.47
2023-04-16T19:46:42.460Z,8.48
2023-04-16T20:01:42.886Z,8.45
2023-04-16T20:16:42.279Z,8.37
2023-04-16T20:31:41.979Z,8.20
2023-04-16T20:46:41.910Z,8.12
2023-04-16T21:01:41.813Z,8.04
2023-04-16T21:16:41.495Z,7.90
2023-04-16T21:31:41.586Z,7.84
2023-04-16T21:46:41.338Z,7.66
2023-04-16T22:01:41.117Z,7.45
2023-04-16T22:16:40.952Z,7.32
2023-04-16T22:31:40.777Z,7.23
2023-04-16T22:46:40.538Z,7.24
2023-04-16T23:01:40.453Z,7.05
2023-04-16T23:16:40.328Z,7.01
2023-04-16T23:31:40.189Z,7.01
2023-04-16T23:46:39.957Z,7.02
